Terminal Aerodrome Forecast
Issued by NWS

Home | Current Version | Previous Version | Graphics & Text | Print | Product List | Glossary On
Versions: 1 2 3 4 5 6 7 8 9 10 11 12 13 14 15 16 17
000
FTUS43 KBIS 211700
TAFJMS
TAF
KJMS 211721Z 2118/2218 12012KT P6SM SCT090
      TEMPO 2123/2202 VRB30G40KT 2SM +TSRAGR OVC050CB
     FM220200 04010KT P6SM VCTS OVC050CB
     FM220400 35012KT P6SM BKN050=

USA.gov is the U.S. government's official web portal to all federal, state and local government web resources and services.